createdAt,value
2022-10-09T00:00:48.382Z,87.88
2022-10-09T00:03:17.036Z,87.71
2022-10-09T00:05:44.660Z,87.81
2022-10-09T00:08:11.319Z,87.93
2022-10-09T00:10:42.771Z,87.93
2022-10-09T00:13:09.483Z,87.74
2022-10-09T00:15:44.542Z,87.75
2022-10-09T00:18:12.808Z,87.80
2022-10-09T00:20:41.328Z,87.73
2022-10-09T00:23:08.303Z,87.62
2022-10-09T00:25:38.494Z,87.67
2022-10-09T00:28:04.956Z,87.73
2022-10-09T00:30:31.581Z,87.80
2022-10-09T00:32:57.975Z,87.76
2022-10-09T00:35:24.312Z,87.64
2022-10-09T00:37:50.647Z,87.61
2022-10-09T00:40:17.264Z,87.70
2022-10-09T00:42:45.543Z,87.68
2022-10-09T00:45:20.399Z,87.85
2022-10-09T00:47:53.056Z,88.04
2022-10-09T00:50:24.017Z,88.34
2022-10-09T00:52:58.893Z,88.29
2022-10-09T00:55:27.384Z,88.36
2022-10-09T00:57:55.466Z,88.37
2022-10-09T01:00:22.109Z,88.37
2022-10-09T01:02:48.791Z,88.31
2022-10-09T01:05:15.886Z,88.52
2022-10-09T01:07:54.490Z,88.56
2022-10-09T01:10:41.017Z,88.80
2022-10-09T01:13:29.362Z,88.77
2022-10-09T01:16:09.786Z,88.76
2022-10-09T01:18:54.542Z,88.82
2022-10-09T01:21:31.727Z,88.90
2022-10-09T01:24:14.838Z,89.01
2022-10-09T01:26:59.383Z,89.12
2022-10-09T01:29:31.173Z,89.14
2022-10-09T01:32:00.210Z,89.17
2022-10-09T01:34:27.830Z,89.35
2022-10-09T01:36:55.906Z,89.28
2022-10-09T01:39:24.990Z,89.30
2022-10-09T01:41:53.478Z,89.36
2022-10-09T01:44:26.086Z,89.28
2022-10-09T01:46:53.062Z,89.13
2022-10-09T01:49:50.103Z,89.26
2022-10-09T01:52:40.361Z,89.18
2022-10-09T01:55:17.724Z,89.04
2022-10-09T01:57:51.868Z,88.98
2022-10-09T02:00:18.670Z,88.90
2022-10-09T02:02:46.871Z,88.68
2022-10-09T02:05:22.467Z,88.88
2022-10-09T02:07:49.303Z,88.82
2022-10-09T02:10:17.953Z,88.77
2022-10-09T02:12:50.703Z,88.57
2022-10-09T02:15:17.334Z,88.63
2022-10-09T02:17:48.892Z,88.76
2022-10-09T02:20:32.039Z,88.88
2022-10-09T02:23:04.060Z,89.05
2022-10-09T02:25:30.453Z,89.01
2022-10-09T02:27:57.175Z,89.22
2022-10-09T02:30:26.753Z,89.35
2022-10-09T02:32:54.356Z,89.36
2022-10-09T02:35:21.249Z,89.36
2022-10-09T02:37:49.038Z,89.21
2022-10-09T02:40:15.842Z,89.41
2022-10-09T02:42:42.204Z,89.29
2022-10-09T02:45:09.441Z,89.40
2022-10-09T02:47:35.779Z,89.29
2022-10-09T02:50:02.116Z,89.27
2022-10-09T02:52:28.477Z,89.24
2022-10-09T02:54:54.794Z,89.08
2022-10-09T02:57:21.170Z,89.07
2022-10-09T02:59:47.511Z,89.10
2022-10-09T03:02:14.106Z,89.18
2022-10-09T03:04:40.567Z,89.24
2022-10-09T03:07:06.996Z,89.34
2022-10-09T03:09:33.962Z,89.36
2022-10-09T03:12:00.411Z,89.49
2022-10-09T03:14:26.766Z,89.58
2022-10-09T03:16:53.112Z,89.53
2022-10-09T03:19:19.439Z,89.55
2022-10-09T03:21:45.791Z,89.81
2022-10-09T03:24:12.287Z,89.69
2022-10-09T03:26:38.626Z,89.79
2022-10-09T03:29:04.978Z,89.82
2022-10-09T03:34:17.650Z,89.80
2022-10-09T03:36:44.029Z,89.69
2022-10-09T03:39:10.449Z,89.63
2022-10-09T03:41:36.787Z,89.53
2022-10-09T03:44:03.213Z,89.57
2022-10-09T03:46:29.648Z,89.52
2022-10-09T03:48:56.081Z,89.48
2022-10-09T03:51:22.410Z,89.52
2022-10-09T03:53:48.803Z,89.48
2022-10-09T03:56:15.834Z,89.55
2022-10-09T03:58:42.157Z,89.48
2022-10-09T04:01:08.688Z,89.40
2022-10-09T04:03:35.178Z,89.47
2022-10-09T04:06:01.527Z,89.55
2022-10-09T04:08:27.927Z,89.45
2022-10-09T04:11:01.195Z,89.51
2022-10-09T04:13:27.860Z,89.50
2022-10-09T04:15:55.572Z,89.51
2022-10-09T04:18:22.460Z,89.50
2022-10-09T04:20:53.497Z,89.55
2022-10-09T04:23:21.197Z,89.57
2022-10-09T04:25:47.884Z,89.52
2022-10-09T04:28:14.396Z,89.48
2022-10-09T04:30:41.109Z,89.61
2022-10-09T04:33:11.941Z,89.60
2022-10-09T04:35:43.515Z,89.53
2022-10-09T04:38:10.164Z,89.65
2022-10-09T04:40:36.639Z,89.75
2022-10-09T04:43:03.141Z,89.68
2022-10-09T04:45:29.526Z,89.87
2022-10-09T04:47:55.922Z,89.81
2022-10-09T04:50:22.249Z,89.76
2022-10-09T04:52:57.950Z,89.91
2022-10-09T04:55:24.453Z,90.04
2022-10-09T04:57:50.769Z,89.97
2022-10-09T05:00:17.126Z,90.10
2022-10-09T05:02:43.432Z,90.01
2022-10-09T05:05:09.778Z,89.89
2022-10-09T05:07:36.125Z,89.96
2022-10-09T05:10:02.511Z,90.06
2022-10-09T05:12:28.854Z,90.19
2022-10-09T05:14:55.179Z,89.88
2022-10-09T05:17:23.560Z,89.89
2022-10-09T05:19:50.151Z,89.87
2022-10-09T05:22:16.475Z,89.93
2022-10-09T05:24:42.804Z,90.00
2022-10-09T05:27:09.193Z,90.09
2022-10-09T05:29:35.502Z,90.08
2022-10-09T05:32:02.001Z,90.22
2022-10-09T05:34:28.483Z,90.17
2022-10-09T05:36:54.816Z,90.33
2022-10-09T05:39:21.189Z,90.30
2022-10-09T05:41:47.530Z,90.35
2022-10-09T05:44:13.908Z,90.45
2022-10-09T05:46:40.241Z,90.46
2022-10-09T05:49:06.694Z,90.56
2022-10-09T05:51:35.951Z,90.64
2022-10-09T05:54:03.203Z,90.76
2022-10-09T05:56:31.897Z,90.88
2022-10-09T05:59:01.041Z,90.82
2022-10-09T06:01:33.207Z,90.92
2022-10-09T06:04:00.613Z,90.98
2022-10-09T06:06:29.543Z,90.85
2022-10-09T06:08:56.358Z,91.03
2022-10-09T06:11:28.531Z,91.06
2022-10-09T06:13:56.074Z,91.16
2022-10-09T06:16:25.131Z,91.07
2022-10-09T06:18:53.229Z,91.16
2022-10-09T06:21:19.866Z,91.16
2022-10-09T06:23:50.795Z,91.22
2022-10-09T06:26:18.210Z,91.24
2022-10-09T06:28:45.262Z,91.35
2022-10-09T06:31:14.757Z,91.27
2022-10-09T06:33:42.724Z,91.28
2022-10-09T06:36:11.842Z,91.35
2022-10-09T06:38:39.102Z,91.59
2022-10-09T06:41:08.295Z,91.57
2022-10-09T06:43:35.017Z,91.68
2022-10-09T06:46:03.973Z,91.76
2022-10-09T06:48:34.930Z,91.93
2022-10-09T06:51:06.016Z,92.04
2022-10-09T06:53:40.674Z,92.20
2022-10-09T06:56:08.605Z,92.41
2022-10-09T06:58:35.338Z,93.07
2022-10-09T07:01:04.116Z,93.46
2022-10-09T07:03:31.082Z,93.51
2022-10-09T07:06:15.464Z,93.72
2022-10-09T07:08:44.457Z,94.13
2022-10-09T07:11:15.333Z,94.25
2022-10-09T07:13:42.775Z,94.20
2022-10-09T07:16:10.317Z,94.19
2022-10-09T07:18:38.051Z,94.34
2022-10-09T07:21:07.583Z,94.33
2022-10-09T07:23:35.543Z,94.11
2022-10-09T07:26:08.506Z,94.05
2022-10-09T07:28:35.065Z,94.13
2022-10-09T07:33:31.699Z,93.58
2022-10-09T07:36:00.158Z,93.67
2022-10-09T07:38:26.931Z,93.45
2022-10-09T07:40:53.983Z,93.23
2022-10-09T07:43:21.233Z,93.23
2022-10-09T07:45:47.936Z,93.22
2022-10-09T07:48:14.367Z,92.96
2022-10-09T07:50:40.711Z,92.65
2022-10-09T07:53:08.607Z,92.51
2022-10-09T07:55:35.429Z,92.08
2022-10-09T07:58:02.050Z,91.61
2022-10-09T08:00:28.441Z,91.37
2022-10-09T08:02:55.266Z,91.14
2022-10-09T08:05:21.630Z,90.76
2022-10-09T08:07:47.993Z,90.31
2022-10-09T08:10:14.487Z,90.11
2022-10-09T08:12:41.030Z,89.55
2022-10-09T08:15:07.901Z,88.93
2022-10-09T08:17:34.355Z,88.23
2022-10-09T08:20:00.870Z,87.82
2022-10-09T08:22:27.195Z,87.44
2022-10-09T08:24:53.555Z,87.49
2022-10-09T08:27:19.908Z,86.67
2022-10-09T08:29:46.234Z,86.36
2022-10-09T08:32:12.583Z,86.04
2022-10-09T08:37:05.178Z,84.65
2022-10-09T08:39:32.249Z,84.22
2022-10-09T08:42:01.810Z,83.11
2022-10-09T08:47:21.692Z,82.69
2022-10-09T08:52:39.478Z,82.18
2022-10-09T08:57:46.910Z,79.21
2022-10-09T09:00:17.922Z,79.84
2022-10-09T09:03:24.255Z,79.09
2022-10-09T09:09:02.094Z,79.10
2022-10-09T09:11:39.903Z,77.83
2022-10-09T09:14:32.435Z,77.89
2022-10-09T09:17:11.051Z,77.22
2022-10-09T09:22:13.376Z,73.40
2022-10-09T09:24:57.426Z,73.95
2022-10-09T09:27:36.597Z,73.98
2022-10-09T09:30:16.261Z,70.95
2022-10-09T09:33:16.216Z,69.16
2022-10-09T09:36:09.061Z,67.50
2022-10-09T09:38:43.911Z,66.29
2022-10-09T09:41:23.181Z,67.15
2022-10-09T09:43:49.569Z,65.37
2022-10-09T09:51:28.884Z,64.25
2022-10-09T09:59:32.236Z,63.37
2022-10-09T10:02:13.289Z,63.63
2022-10-09T10:07:38.634Z,61.38
2022-10-09T10:10:29.360Z,62.15
2022-10-09T10:12:58.391Z,59.94
2022-10-09T10:18:03.113Z,61.48
2022-10-09T10:20:32.022Z,61.07
2022-10-09T10:27:59.812Z,58.78
2022-10-09T10:30:26.431Z,57.60
2022-10-09T10:35:32.575Z,57.56
2022-10-09T10:38:21.076Z,58.61
2022-10-09T10:40:50.911Z,57.04
2022-10-09T10:43:35.994Z,55.68
2022-10-09T10:46:11.542Z,57.38
2022-10-09T10:48:45.518Z,56.15
2022-10-09T10:56:34.346Z,55.63
2022-10-09T10:59:23.477Z,55.14
2022-10-09T11:02:11.856Z,54.95
2022-10-09T11:05:01.927Z,55.30
2022-10-09T11:10:56.597Z,55.88
2022-10-09T11:16:13.379Z,52.43
2022-10-09T11:24:00.064Z,51.93
2022-10-09T11:26:36.631Z,52.15
2022-10-09T11:29:13.085Z,51.40
2022-10-09T11:37:03.558Z,52.00
2022-10-09T11:42:00.231Z,50.11
2022-10-09T11:52:48.067Z,50.92
2022-10-09T11:55:26.992Z,52.19
2022-10-09T11:57:54.258Z,50.65
2022-10-09T12:03:02.218Z,50.70
2022-10-09T12:05:49.402Z,50.95
2022-10-09T12:13:39.013Z,49.34
2022-10-09T12:16:29.411Z,49.43
2022-10-09T12:18:58.012Z,48.14
2022-10-09T12:21:29.004Z,48.64
2022-10-09T12:23:55.788Z,49.32
2022-10-09T12:26:24.819Z,48.01
2022-10-09T12:33:53.923Z,49.28
2022-10-09T12:38:54.621Z,49.04
2022-10-09T12:41:26.006Z,48.36
2022-10-09T12:43:54.878Z,48.50
2022-10-09T12:46:33.314Z,51.18
2022-10-09T12:51:30.840Z,50.86
2022-10-09T12:56:36.731Z,49.17
2022-10-09T12:59:04.118Z,50.55
2022-10-09T13:01:31.381Z,50.67
2022-10-09T13:04:00.704Z,50.75
2022-10-09T13:06:33.253Z,49.88
2022-10-09T13:11:40.634Z,49.68
2022-10-09T13:14:24.005Z,48.18
2022-10-09T13:16:50.444Z,47.91
2022-10-09T13:19:31.949Z,48.53
2022-10-09T13:24:28.093Z,46.44
2022-10-09T13:26:54.427Z,46.89
2022-10-09T13:29:21.110Z,48.15
2022-10-09T13:31:47.566Z,47.40
2022-10-09T13:34:16.150Z,48.68
2022-10-09T13:39:14.840Z,46.30
2022-10-09T13:44:08.327Z,47.82
2022-10-09T13:46:34.676Z,48.41
2022-10-09T13:51:27.398Z,48.83
2022-10-09T13:53:54.593Z,49.38
2022-10-09T13:56:20.916Z,49.32
2022-10-09T14:01:13.705Z,49.40
2022-10-09T14:03:40.495Z,49.62
2022-10-09T14:08:33.305Z,48.53
2022-10-09T14:11:00.534Z,49.49
2022-10-09T14:13:27.713Z,49.07
2022-10-09T14:15:54.288Z,50.92
2022-10-09T14:18:20.965Z,50.34
2022-10-09T14:20:47.543Z,50.08
2022-10-09T14:23:14.001Z,49.50
2022-10-09T14:28:07.260Z,50.97
2022-10-09T14:30:33.852Z,50.83
2022-10-09T14:33:00.290Z,50.78
2022-10-09T14:35:26.656Z,49.94
2022-10-09T14:37:53.054Z,51.12
2022-10-09T14:40:19.361Z,48.41
2022-10-09T14:42:45.767Z,47.93
2022-10-09T14:45:12.214Z,48.45
2022-10-09T14:47:38.590Z,46.93
2022-10-09T14:50:05.519Z,47.65
2022-10-09T14:52:31.942Z,46.93
2022-10-09T15:02:17.658Z,50.13
2022-10-09T15:04:43.989Z,48.72
2022-10-09T15:07:10.374Z,48.78
2022-10-09T15:09:36.738Z,47.65
2022-10-09T15:12:03.182Z,47.31
2022-10-09T15:16:55.758Z,48.76
2022-10-09T15:19:22.153Z,47.86
2022-10-09T15:21:48.548Z,47.83
2022-10-09T15:24:14.929Z,48.10
2022-10-09T15:26:41.901Z,48.04
2022-10-09T15:29:09.123Z,47.42
2022-10-09T15:31:38.379Z,48.89
2022-10-09T15:34:07.536Z,48.33
2022-10-09T15:39:05.554Z,47.82
2022-10-09T15:46:27.633Z,48.65
2022-10-09T15:51:20.548Z,48.09
2022-10-09T15:53:49.385Z,47.40
2022-10-09T15:56:19.109Z,47.88
2022-10-09T15:58:45.420Z,48.16
2022-10-09T16:11:00.074Z,48.69
2022-10-09T16:15:54.125Z,49.09
2022-10-09T16:18:22.500Z,49.42
2022-10-09T16:20:49.985Z,48.97
2022-10-09T16:28:12.126Z,50.23
2022-10-09T16:33:11.623Z,50.78
2022-10-09T16:35:38.941Z,51.29
2022-10-09T16:38:05.289Z,51.43
2022-10-09T16:43:19.594Z,51.98
2022-10-09T16:45:45.928Z,52.34
2022-10-09T16:48:12.288Z,52.72
2022-10-09T16:50:40.819Z,53.06
2022-10-09T16:53:07.208Z,53.24
2022-10-09T16:55:33.690Z,53.34
2022-10-09T16:58:00.094Z,53.66
2022-10-09T17:02:52.759Z,54.63
2022-10-09T17:07:46.627Z,56.06
2022-10-09T17:10:13.125Z,55.95
2022-10-09T17:12:39.489Z,55.84
2022-10-09T17:17:32.593Z,55.77
2022-10-09T17:19:59.059Z,55.81
2022-10-09T17:22:25.443Z,56.01
2022-10-09T17:24:51.765Z,55.99
2022-10-09T17:27:18.507Z,56.09
2022-10-09T17:29:44.840Z,56.69
2022-10-09T17:32:11.195Z,56.63
2022-10-09T17:34:42.837Z,57.15
2022-10-09T17:37:13.158Z,57.43
2022-10-09T17:39:39.629Z,57.62
2022-10-09T17:42:06.064Z,57.69
2022-10-09T17:44:32.426Z,57.80
2022-10-09T17:46:58.790Z,58.16
2022-10-09T17:49:25.099Z,58.21
2022-10-09T17:51:52.581Z,58.39
2022-10-09T17:54:18.953Z,58.69
2022-10-09T17:56:45.901Z,59.21
2022-10-09T18:01:39.157Z,59.75
2022-10-09T18:04:05.649Z,60.11
2022-10-09T18:06:34.108Z,60.72
2022-10-09T18:09:00.636Z,60.98
2022-10-09T18:11:27.462Z,61.65
2022-10-09T18:13:54.348Z,62.45
2022-10-09T18:16:35.198Z,63.26
2022-10-09T18:19:05.357Z,63.68
2022-10-09T18:21:31.822Z,64.24
2022-10-09T18:23:58.166Z,64.54
2022-10-09T18:26:24.473Z,64.79
2022-10-09T18:28:50.861Z,65.01
2022-10-09T18:33:45.617Z,65.68
2022-10-09T18:36:18.239Z,66.35
2022-10-09T18:38:49.608Z,66.94
2022-10-09T18:41:17.705Z,67.11
2022-10-09T18:43:44.428Z,67.47
2022-10-09T18:46:11.149Z,67.37
2022-10-09T18:48:40.650Z,67.39
2022-10-09T18:51:13.346Z,67.67
2022-10-09T18:53:42.170Z,67.76
2022-10-09T18:56:09.982Z,68.00
2022-10-09T18:58:38.586Z,68.42
2022-10-09T19:01:07.492Z,68.33
2022-10-09T19:03:36.334Z,68.24
2022-10-09T19:06:04.093Z,68.55
2022-10-09T19:08:30.555Z,68.72
2022-10-09T19:10:56.884Z,68.50
2022-10-09T19:13:23.409Z,68.52
2022-10-09T19:15:51.760Z,68.59
2022-10-09T19:18:18.376Z,68.51
2022-10-09T19:20:44.756Z,68.75
2022-10-09T19:23:11.179Z,68.94
2022-10-09T19:25:37.503Z,69.05
2022-10-09T19:28:04.180Z,69.24
2022-10-09T19:30:30.839Z,69.38
2022-10-09T19:32:57.162Z,69.51
2022-10-09T19:35:23.492Z,69.66
2022-10-09T19:37:50.079Z,69.97
2022-10-09T19:40:16.667Z,70.24
2022-10-09T19:42:43.041Z,70.48
2022-10-09T19:45:09.504Z,70.73
2022-10-09T19:47:36.296Z,71.08
2022-10-09T19:50:02.698Z,71.49
2022-10-09T19:52:29.139Z,71.87
2022-10-09T19:54:55.461Z,72.02
2022-10-09T19:57:21.785Z,72.39
2022-10-09T19:59:48.521Z,72.59
2022-10-09T20:02:14.855Z,73.06
2022-10-09T20:04:41.164Z,73.35
2022-10-09T20:07:12.315Z,73.47
2022-10-09T20:09:39.090Z,73.69
2022-10-09T20:12:07.814Z,74.01
2022-10-09T20:14:34.154Z,74.26
2022-10-09T20:17:03.701Z,74.20
2022-10-09T20:19:31.427Z,74.41
2022-10-09T20:21:57.954Z,74.72
2022-10-09T20:24:27.329Z,74.77
2022-10-09T20:26:53.653Z,75.08
2022-10-09T20:29:20.286Z,75.35
2022-10-09T20:31:48.684Z,75.60
2022-10-09T20:34:16.676Z,75.82
2022-10-09T20:36:43.068Z,75.69
2022-10-09T20:39:13.055Z,75.82
2022-10-09T20:41:40.356Z,75.79
2022-10-09T20:44:06.805Z,75.92
2022-10-09T20:46:35.689Z,76.20
2022-10-09T20:49:05.469Z,76.50
2022-10-09T20:51:34.304Z,76.61
2022-10-09T20:54:01.269Z,76.52
2022-10-09T20:56:30.321Z,76.65
2022-10-09T20:58:58.044Z,76.85
2022-10-09T21:01:24.872Z,76.96
2022-10-09T21:03:51.676Z,76.88
2022-10-09T21:06:20.553Z,76.99
2022-10-09T21:08:46.989Z,77.02
2022-10-09T21:11:18.248Z,76.91
2022-10-09T21:13:45.343Z,76.91
2022-10-09T21:16:14.041Z,77.10
2022-10-09T21:18:40.424Z,77.16
2022-10-09T21:21:17.176Z,77.20
2022-10-09T21:23:45.370Z,77.29
2022-10-09T21:26:16.761Z,77.43
2022-10-09T21:28:44.060Z,77.68
2022-10-09T21:31:16.272Z,77.62
2022-10-09T21:33:42.632Z,77.57
2022-10-09T21:36:22.588Z,77.70
2022-10-09T21:38:48.902Z,77.66
2022-10-09T21:41:15.312Z,77.64
2022-10-09T21:43:41.630Z,77.61
2022-10-09T21:46:07.962Z,77.64
2022-10-09T21:48:34.277Z,77.88
2022-10-09T21:51:00.674Z,77.79
2022-10-09T21:53:27.013Z,78.23
2022-10-09T21:55:53.362Z,78.36
2022-10-09T21:58:19.706Z,78.63
2022-10-09T22:00:46.016Z,78.48
2022-10-09T22:03:12.353Z,78.64
2022-10-09T22:05:40.624Z,78.51
2022-10-09T22:08:06.957Z,78.50
2022-10-09T22:10:33.287Z,78.49
2022-10-09T22:12:59.602Z,78.41
2022-10-09T22:17:52.147Z,78.53
2022-10-09T22:20:18.519Z,78.48
2022-10-09T22:22:44.841Z,78.67
2022-10-09T22:25:11.501Z,78.75
2022-10-09T22:27:37.885Z,79.01
2022-10-09T22:30:04.798Z,79.30
2022-10-09T22:32:31.158Z,79.31
2022-10-09T22:34:57.480Z,79.28
2022-10-09T22:37:23.884Z,79.26
2022-10-09T22:39:50.246Z,79.34
2022-10-09T22:42:16.631Z,79.19
2022-10-09T22:44:42.986Z,79.48
2022-10-09T22:47:09.350Z,79.70
2022-10-09T22:49:35.686Z,79.73
2022-10-09T22:52:02.096Z,79.81
2022-10-09T22:54:28.445Z,79.66
2022-10-09T22:56:54.945Z,79.75
2022-10-09T22:59:21.370Z,79.95
2022-10-09T23:01:54.940Z,80.13
2022-10-09T23:04:22.455Z,80.14
2022-10-09T23:06:51.864Z,80.14
2022-10-09T23:09:18.692Z,80.14
2022-10-09T23:11:45.685Z,80.14
2022-10-09T23:14:13.057Z,80.36
2022-10-09T23:16:40.483Z,80.53
2022-10-09T23:19:07.363Z,80.83
2022-10-09T23:21:35.398Z,80.96
2022-10-09T23:24:02.054Z,80.96
2022-10-09T23:26:30.852Z,80.93
2022-10-09T23:29:02.428Z,81.06
2022-10-09T23:31:29.460Z,81.21
2022-10-09T23:33:56.597Z,81.23
2022-10-09T23:36:25.396Z,81.56
2022-10-09T23:38:52.100Z,81.72
2022-10-09T23:41:21.291Z,81.93
2022-10-09T23:43:48.759Z,82.11
2022-10-09T23:46:21.012Z,82.29
2022-10-09T23:48:48.612Z,82.53
2022-10-09T23:51:15.742Z,82.65
2022-10-09T23:56:19.124Z,83.13
2022-10-09T23:58:45.943Z,83.59
